Mount Zion, Iowa
Current Conditions -  °F | °C
As of 1:15 PM on Friday 21 Nov 2014 (Local Time) from KFFL Reporting Station
Clear Clear  
Wind Chill: 23°   Ceiling: Unl
Heat Index: 34°   Visibility: NA
Dew Point: 16°   Wind: 17mph
Humidity: 48%   Direction: 140°SE
Pressure: 30.25"   Gusts: NA
Location:  40.7687°N, 92.0788°W
Report Text: KFFL 211915Z AUTO 14015KT CLR 01/M09 A3025 RMK AO2
Loading
Personal Weather Stations






























Interactive Weather Map New forecast layout! Learn more

10-Day Weather Forecast

Advertisements
Track Severe Weather on mobile